Time;durP1;ratioP1;P1;durP2;ratioP2;P2;SDS_P1;SDS_P2;PMS_P1;PMS_P2;Temp;Humidity;BMP_temperature;BMP_pressure;BME280_temperature;BME280_humidity;BME280_pressure;Samples;Min_cycle;Max_cycle;Signal;HPM_P1;HPM_P2
2023/11/30 00:02:21;;;;;;;29.77;19.60;;;;;2.30;99669.00;;;;10099907;29;22136;-89
2023/11/30 00:07:22;;;;;;;29.77;19.30;;;;;2.30;99664.00;;;;10095706;29;20765;-85
2023/11/30 00:12:23;;;;;;;27.03;18.40;;;;;2.40;99652.00;;;;10096187;29;20227;-88
2023/11/30 00:17:25;;;;;;;25.03;18.00;;;;;2.40;99659.00;;;;10088953;29;20227;-83
2023/11/30 00:22:26;;;;;;;25.50;18.50;;;;;2.40;99653.00;;;;10086711;29;20307;-82
2023/11/30 00:27:27;;;;;;;23.43;17.10;;;;;2.30;99647.00;;;;10074574;29;20243;-82
2023/11/30 00:32:30;;;;;;;24.73;17.43;;;;;2.30;99638.00;;;;10084336;29;20821;-83
2023/11/30 00:37:31;;;;;;;25.57;18.37;;;;;2.20;99629.00;;;;10089503;29;20297;-83
2023/11/30 00:42:32;;;;;;;22.97;16.30;;;;;2.10;99620.00;;;;10071603;29;20702;-82
2023/11/30 00:47:34;;;;;;;24.93;17.80;;;;;2.00;99615.00;;;;10074396;29;20306;-82
2023/11/30 00:52:36;;;;;;;25.47;17.47;;;;;1.80;99603.00;;;;10080448;29;20330;-83
2023/11/30 00:57:37;;;;;;;25.03;17.63;;;;;1.60;99602.00;;;;10082569;29;20278;-82
2023/11/30 01:02:40;;;;;;;25.30;19.43;;;;;1.60;99588.00;;;;10068141;29;20219;-83
2023/11/30 01:07:41;;;;;;;26.07;16.97;;;;;1.60;99593.00;;;;10100296;29;20235;-83
2023/11/30 01:12:42;;;;;;;24.23;17.43;;;;;1.50;99593.00;;;;10086416;29;20227;-83
2023/11/30 01:17:43;;;;;;;26.37;18.07;;;;;1.50;99584.00;;;;10072533;29;20231;-83
2023/11/30 01:22:45;;;;;;;23.90;18.30;;;;;1.40;99588.00;;;;10066308;29;20618;-82
2023/11/30 01:27:47;;;;;;;28.13;18.77;;;;;1.30;99585.00;;;;10095641;29;20279;-76
2023/11/30 01:32:48;;;;;;;23.73;17.10;;;;;1.20;99576.00;;;;10089139;29;20651;-76
2023/11/30 01:37:50;;;;;;;22.67;15.87;;;;;1.00;99586.00;;;;10095690;29;20231;-78
2023/11/30 01:42:51;;;;;;;25.70;17.43;;;;;0.90;99578.00;;;;10096693;29;20250;-77
2023/11/30 01:47:52;;;;;;;23.13;16.97;;;;;0.80;99582.00;;;;10099785;29;20219;-77
2023/11/30 01:52:55;;;;;;;28.07;17.13;;;;;0.70;99584.00;;;;10090650;29;20368;-78
2023/11/30 01:57:56;;;;;;;24.07;15.73;;;;;0.60;99591.00;;;;10112205;29;20894;-77
2023/11/30 02:02:58;;;;;;;24.33;16.00;;;;;0.50;99585.00;;;;10088708;29;20251;-78
2023/11/30 02:08:01;;;;;;;24.57;16.90;;;;;0.50;99572.00;;;;10054716;29;20227;-78
2023/11/30 02:13:02;;;;;;;26.30;17.57;;;;;0.50;99569.00;;;;10077208;29;20244;-77
2023/11/30 02:18:05;;;;;;;27.07;18.87;;;;;0.50;99576.00;;;;10103201;29;20222;-78
2023/11/30 02:23:06;;;;;;;27.97;18.33;;;;;0.60;99563.00;;;;10097409;29;20231;-79
2023/11/30 02:28:07;;;;;;;24.83;18.33;;;;;0.50;99560.00;;;;10104096;29;20563;-77
2023/11/30 02:33:08;;;;;;;25.10;16.70;;;;;0.40;99563.00;;;;10117610;29;20868;-78
2023/11/30 02:38:09;;;;;;;27.23;18.17;;;;;0.40;99560.00;;;;10102687;29;20227;-77
2023/11/30 02:43:11;;;;;;;26.57;17.47;;;;;0.30;99566.00;;;;10101473;29;20255;-79
2023/11/30 02:48:14;;;;;;;24.73;16.53;;;;;0.30;99566.00;;;;10110694;29;20243;-77
2023/11/30 02:53:15;;;;;;;28.70;18.67;;;;;0.40;99556.00;;;;10095219;29;20243;-77
2023/11/30 02:58:16;;;;;;;28.80;18.63;;;;;0.50;99557.00;;;;10074285;29;20305;-76
2023/11/30 03:03:17;;;;;;;29.63;19.20;;;;;0.60;99552.00;;;;10062741;29;20309;-79
2023/11/30 03:08:19;;;;;;;27.67;19.37;;;;;0.70;99561.00;;;;10113650;29;20234;-79
2023/11/30 03:13:20;;;;;;;29.53;18.67;;;;;0.70;99560.00;;;;10089428;29;20674;-77
2023/11/30 03:18:21;;;;;;;28.40;19.23;;;;;0.70;99569.00;;;;10085827;29;20310;-78
2023/11/30 03:23:22;;;;;;;31.50;19.63;;;;;0.70;99563.00;;;;10106034;29;20873;-76
2023/11/30 03:28:23;;;;;;;26.73;19.30;;;;;0.80;99549.00;;;;10107167;29;20235;-77
2023/11/30 03:33:25;;;;;;;25.83;17.93;;;;;0.80;99554.00;;;;10106201;29;20235;-77
2023/11/30 03:38:26;;;;;;;25.40;17.83;;;;;0.80;99552.00;;;;10104578;29;20701;-76
2023/11/30 03:43:27;;;;;;;26.23;17.37;;;;;0.70;99565.00;;;;10118079;29;20234;-78
2023/11/30 04:01:05;;;;;;;25.50;18.00;;;;;0.60;99548.00;;;;12358774;23;20397;31
2023/11/30 04:55:11;;;;;;;25.80;16.40;;;;;-0.20;99508.00;;;;11203207;23;20297;-84
2023/11/30 05:00:13;;;;;;;36.80;19.83;;;;;-0.20;99517.00;;;;10117501;29;20311;-84
2023/11/30 05:05:14;;;;;;;66.33;22.80;;;;;-0.20;99518.00;;;;10118916;29;20235;-85
2023/11/30 05:10:15;;;;;;;41.20;20.17;;;;;-0.20;99517.00;;;;10091341;29;20340;-85
2023/11/30 05:15:16;;;;;;;30.73;18.00;;;;;-0.30;99512.00;;;;10115026;29;20260;-85
2023/11/30 05:20:18;;;;;;;50.60;19.30;;;;;-0.30;99507.00;;;;10078964;29;20708;-86
2023/11/30 05:25:19;;;;;;;57.93;19.00;;;;;-0.30;99507.00;;;;10144457;29;20240;-84
2023/11/30 05:30:20;;;;;;;30.10;17.33;;;;;-0.40;99515.00;;;;10122676;29;20255;-86
2023/11/30 05:35:22;;;;;;;47.50;18.07;;;;;-0.40;99522.00;;;;10137966;28;20234;-86
2023/11/30 05:40:24;;;;;;;53.07;17.13;;;;;-0.40;99522.00;;;;10125857;29;20231;-86
2023/11/30 05:45:27;;;;;;;53.33;17.70;;;;;-0.40;99519.00;;;;10117579;29;20688;-85
2023/11/30 05:50:28;;;;;;;53.23;18.73;;;;;-0.50;99528.00;;;;10122811;29;20231;-86
2023/11/30 05:55:29;;;;;;;44.10;18.87;;;;;-0.50;99525.00;;;;10144012;29;20231;-85
2023/11/30 06:00:31;;;;;;;64.90;19.43;;;;;-0.50;99512.00;;;;10133323;29;20231;-86
2023/11/30 06:05:32;;;;;;;62.23;19.50;;;;;-0.60;99514.00;;;;10120921;28;20285;-85
2023/11/30 06:41:26;;;;;;;52.17;17.77;;;;;-0.50;99546.00;;;;11176950;23;21182;31
2023/11/30 06:46:27;;;;;;;31.03;17.27;;;;;-0.60;99553.00;;;;10325865;23;20262;-86
2023/11/30 06:51:28;;;;;;;60.57;22.80;;;;;-0.60;99556.00;;;;10098803;29;20255;-84
2023/11/30 06:56:30;;;;;;;45.80;19.13;;;;;-0.60;99562.00;;;;10127420;29;20227;-85
2023/11/30 07:01:31;;;;;;;33.50;17.10;;;;;-0.50;99569.00;;;;10123379;29;20224;-85
2023/11/30 07:06:32;;;;;;;66.80;18.63;;;;;-0.60;99556.00;;;;10117392;29;20235;-87
2023/11/30 07:11:33;;;;;;;64.50;17.37;;;;;-0.70;99554.00;;;;10089524;29;20319;-85
2023/11/30 07:16:35;;;;;;;106.63;19.67;;;;;-0.60;99563.00;;;;10113101;29;20290;-78
2023/11/30 07:21:37;;;;;;;36.43;13.93;;;;;-0.60;99561.00;;;;10092213;29;20231;-78
2023/11/30 07:26:38;;;;;;;48.57;16.47;;;;;-0.70;99569.00;;;;10116605;29;20258;-78
2023/11/30 07:31:39;;;;;;;89.37;17.53;;;;;-0.60;99561.00;;;;10111199;29;20222;-78
2023/11/30 07:36:40;;;;;;;82.73;18.47;;;;;-0.50;99556.00;;;;10111760;29;20231;-79
2023/11/30 07:41:41;;;;;;;67.40;17.93;;;;;-0.40;99545.00;;;;10134674;29;20305;-79
2023/11/30 07:46:42;;;;;;;49.63;15.57;;;;;-0.40;99548.00;;;;10134568;29;20263;-78
2023/11/30 07:51:44;;;;;;;88.20;21.73;;;;;-0.40;99553.00;;;;10124018;29;20298;-79
2023/11/30 07:56:45;;;;;;;59.93;18.67;;;;;-0.20;99557.00;;;;10112156;29;20866;-79
2023/11/30 08:01:47;;;;;;;76.27;18.87;;;;;-0.10;99555.00;;;;10117669;29;20235;-79
2023/11/30 08:06:48;;;;;;;51.43;16.57;;;;;0.00;99539.00;;;;10110439;29;20779;-79
2023/11/30 08:11:49;;;;;;;61.87;17.07;;;;;0.10;99535.00;;;;10133971;29;20233;-79
2023/11/30 08:16:51;;;;;;;90.60;18.57;;;;;0.10;99533.00;;;;10136167;29;20739;-79
2023/11/30 08:21:52;;;;;;;59.07;18.43;;;;;0.20;99531.00;;;;10126932;29;20230;-79
2023/11/30 08:26:53;;;;;;;101.63;20.37;;;;;0.30;99533.00;;;;10148745;29;20243;-84
2023/11/30 08:31:54;;;;;;;102.70;23.07;;;;;0.30;99518.00;;;;10130484;29;20334;-84
2023/11/30 08:36:56;;;;;;;85.97;18.53;;;;;0.40;99522.00;;;;10114727;29;20807;-87
2023/11/30 08:41:57;;;;;;;77.00;20.37;;;;;0.60;99534.00;;;;10142539;29;20219;-84
2023/11/30 08:46:58;;;;;;;72.30;19.23;;;;;0.70;99541.00;;;;10120800;29;20226;-85
2023/11/30 08:51:59;;;;;;;75.90;20.10;;;;;0.70;99542.00;;;;10133720;29;20294;-84
2023/11/30 08:57:01;;;;;;;52.77;23.73;;;;;0.80;99548.00;;;;10204765;24;20235;-86
2023/11/30 09:02:02;;;;;;;76.77;20.83;;;;;0.80;99544.00;;;;10206637;24;20294;-85
2023/11/30 09:07:04;;;;;;;103.87;19.73;;;;;0.90;99549.00;;;;10097848;29;20278;-85
2023/11/30 09:12:05;;;;;;;64.67;19.20;;;;;1.00;99565.00;;;;10085674;29;20227;-86
2023/11/30 09:17:08;;;;;;;72.27;20.00;;;;;1.00;99562.00;;;;10189420;24;20234;-86
2023/11/30 09:22:09;;;;;;;113.17;22.03;;;;;1.30;99563.00;;;;10605766;23;20250;-85
2023/11/30 09:27:10;;;;;;;55.00;15.67;;;;;1.40;99575.00;;;;10028417;29;20232;-86
2023/11/30 09:38:50;;;;;;;37.43;15.23;;;;;1.50;99584.00;;;;1159558;23;20507;-80
2023/11/30 09:43:52;;;;;;;31.13;15.93;;;;;1.80;99584.00;;;;10123759;29;20215;-83
2023/11/30 09:48:53;;;;;;;58.53;17.07;;;;;1.80;99592.00;;;;10073415;29;20218;-83
2023/11/30 09:53:57;;;;;;;76.97;18.50;;;;;2.00;99584.00;;;;10140494;29;20234;-83
2023/11/30 09:58:59;;;;;;;72.73;19.40;;;;;2.20;99594.00;;;;10113281;29;20290;-83
2023/11/30 10:04:14;;;;;;;75.60;18.60;;;;;2.20;99595.00;;;;10129195;29;20329;-83
2023/11/30 10:09:17;;;;;;;75.73;20.07;;;;;2.10;99603.00;;;;10102339;29;20258;-83
2023/11/30 10:14:19;;;;;;;65.30;19.07;;;;;2.30;99596.00;;;;10133799;29;20382;-83
2023/11/30 10:19:20;;;;;;;113.40;22.70;;;;;2.60;99588.00;;;;10102079;29;20254;-83
2023/11/30 10:24:23;;;;;;;115.73;23.53;;;;;2.70;99596.00;;;;10115990;29;20979;-83
2023/11/30 10:29:27;;;;;;;165.37;25.07;;;;;2.80;99610.00;;;;10082069;29;20584;-83
2023/11/30 10:34:42;;;;;;;113.90;24.33;;;;;2.80;99612.00;;;;10075123;29;20242;-84
2023/11/30 10:39:51;;;;;;;153.90;27.60;;;;;2.80;99610.00;;;;10076776;29;20230;-84
2023/11/30 10:44:53;;;;;;;129.50;26.23;;;;;2.80;99610.00;;;;10114374;29;20317;-83
2023/11/30 10:49:59;;;;;;;161.80;26.17;;;;;2.70;99605.00;;;;10098857;29;20306;-78
2023/11/30 10:55:12;;;;;;;118.40;24.17;;;;;2.70;99604.00;;;;10121162;29;20246;-77
2023/11/30 11:00:16;;;;;;;110.10;25.27;;;;;2.60;99599.00;;;;10130099;28;20238;-78
2023/11/30 11:05:24;;;;;;;93.23;24.00;;;;;2.70;99606.00;;;;10111913;29;20223;-77
2023/11/30 11:10:31;;;;;;;103.50;22.80;;;;;2.70;99600.00;;;;10123583;29;20231;-77
2023/11/30 11:15:33;;;;;;;97.23;23.43;;;;;2.70;99602.00;;;;10123806;29;20294;-78
2023/11/30 11:20:36;;;;;;;85.53;22.63;;;;;2.80;99592.00;;;;10123859;29;20856;-81
2023/11/30 11:25:46;;;;;;;113.03;24.50;;;;;2.80;99585.00;;;;10117636;29;20235;-78
2023/11/30 11:30:49;;;;;;;82.37;25.23;;;;;2.70;99573.00;;;;10117664;29;20588;-77
2023/11/30 11:35:53;;;;;;;78.40;20.97;;;;;2.60;99567.00;;;;10121939;29;20245;-78
2023/11/30 11:40:54;;;;;;;116.60;22.53;;;;;2.40;99575.00;;;;10120735;29;20314;-77
2023/11/30 11:45:55;;;;;;;105.97;23.00;;;;;2.50;99586.00;;;;10123191;29;20226;-76
2023/11/30 11:50:58;;;;;;;106.10;23.13;;;;;2.40;99594.00;;;;10111775;29;20353;-77
2023/11/30 11:56:01;;;;;;;98.47;24.73;;;;;2.50;99598.00;;;;10124194;29;20271;-77
2023/11/30 12:01:03;;;;;;;129.63;27.93;;;;;2.90;99582.00;;;;10128912;29;20307;-77
2023/11/30 12:06:04;;;;;;;114.10;22.97;;;;;3.20;99579.00;;;;10094015;29;20219;-79
2023/11/30 12:11:06;;;;;;;113.87;25.93;;;;;3.50;99581.00;;;;10113481;29;20310;-79
2023/11/30 12:16:08;;;;;;;85.60;23.03;;;;;3.90;99564.00;;;;10124104;29;20230;-77
2023/11/30 12:21:10;;;;;;;44.00;18.07;;;;;4.00;99564.00;;;;10122552;29;20963;-78
2023/11/30 12:26:11;;;;;;;67.63;18.73;;;;;4.20;99552.00;;;;10122307;29;20227;-79
2023/11/30 12:31:12;;;;;;;62.77;17.17;;;;;4.00;99542.00;;;;10124814;29;20234;-77
2023/11/30 12:36:16;;;;;;;79.60;19.83;;;;;3.50;99552.00;;;;10121460;29;20234;-77
2023/11/30 12:41:18;;;;;;;61.30;19.70;;;;;3.20;99551.00;;;;10095205;29;20282;-76
2023/11/30 12:46:20;;;;;;;77.33;22.20;;;;;3.10;99552.00;;;;10132301;29;20891;-77
2023/11/30 12:51:21;;;;;;;88.87;20.83;;;;;3.30;99556.00;;;;10098481;29;20227;-78
2023/11/30 12:56:23;;;;;;;72.00;20.87;;;;;3.20;99564.00;;;;10107448;29;21022;-78
2023/11/30 13:01:25;;;;;;;62.43;21.10;;;;;3.40;99557.00;;;;10114714;29;20237;-78
2023/11/30 13:06:26;;;;;;;71.23;22.20;;;;;3.70;99548.00;;;;10097885;29;20227;-88
2023/11/30 13:11:27;;;;;;;60.53;20.83;;;;;3.70;99556.00;;;;10133101;29;20269;-88
2023/11/30 13:16:29;;;;;;;51.97;17.87;;;;;3.60;99563.00;;;;10097001;29;20264;-85
2023/11/30 13:21:31;;;;;;;46.70;18.80;;;;;3.40;99564.00;;;;10123736;29;20231;-86
2023/11/30 13:26:32;;;;;;;42.27;16.40;;;;;3.20;99579.00;;;;10151755;28;20241;-88
2023/11/30 13:31:37;;;;;;;33.60;14.63;;;;;3.20;99571.00;;;;10115237;29;20232;-88
2023/11/30 13:36:41;;;;;;;51.83;19.03;;;;;3.20;99571.00;;;;10134218;29;20239;-89
2023/11/30 13:41:42;;;;;;;66.83;20.13;;;;;3.00;99577.00;;;;10116987;29;20222;-87
2023/11/30 13:46:44;;;;;;;56.47;17.70;;;;;2.80;99582.00;;;;10145658;29;20798;-87
2023/11/30 13:51:45;;;;;;;51.67;19.17;;;;;2.60;99577.00;;;;10091544;29;20291;-87
2023/11/30 13:56:46;;;;;;;53.70;20.23;;;;;2.60;99579.00;;;;10124961;29;20237;-86
2023/11/30 14:01:47;;;;;;;58.53;20.23;;;;;2.50;99582.00;;;;10108376;29;20229;-87
2023/11/30 14:06:50;;;;;;;47.37;19.23;;;;;2.50;99573.00;;;;10114527;29;20231;-88
2023/11/30 14:11:55;;;;;;;52.53;18.93;;;;;2.50;99575.00;;;;10098564;29;20211;-85
2023/11/30 14:16:56;;;;;;;49.43;19.13;;;;;2.50;99575.00;;;;10121647;29;20810;-86
2023/11/30 14:21:57;;;;;;;55.03;21.57;;;;;2.50;99575.00;;;;10140779;29;20222;-85
2023/11/30 14:26:58;;;;;;;45.43;17.63;;;;;2.40;99571.00;;;;10123022;29;20222;-87
2023/11/30 14:32:00;;;;;;;71.53;16.93;;;;;2.10;99574.00;;;;10107285;29;20221;-86
2023/11/30 14:37:04;;;;;;;59.63;19.17;;;;;1.90;99582.00;;;;10136226;29;20218;-88
2023/11/30 14:42:06;;;;;;;58.73;18.73;;;;;2.00;99589.00;;;;10125097;29;20257;-87
2023/11/30 14:47:09;;;;;;;65.50;16.53;;;;;2.00;99589.00;;;;10132147;29;20261;-87
2023/11/30 14:52:11;;;;;;;57.53;16.70;;;;;1.70;99584.00;;;;10108938;29;20326;-88
2023/11/30 14:57:14;;;;;;;98.07;20.07;;;;;1.60;99597.00;;;;10114178;29;20253;-86
2023/11/30 15:02:16;;;;;;;57.43;20.00;;;;;1.60;99597.00;;;;10139847;29;20226;-85
2023/11/30 15:07:17;;;;;;;76.00;22.03;;;;;1.70;99597.00;;;;10103698;29;20318;-87
2023/11/30 15:12:18;;;;;;;83.50;20.20;;;;;1.60;99595.00;;;;10104707;29;20239;-86
2023/11/30 15:17:19;;;;;;;73.60;23.33;;;;;1.40;99601.00;;;;10122704;29;20227;-86
2023/11/30 15:22:21;;;;;;;62.53;20.60;;;;;1.50;99609.00;;;;10101472;29;21118;-87
2023/11/30 15:27:22;;;;;;;74.30;21.50;;;;;1.40;99604.00;;;;10115664;29;20286;-84
2023/11/30 15:32:26;;;;;;;83.63;21.97;;;;;1.40;99605.00;;;;10124954;29;20246;-86
2023/11/30 15:37:28;;;;;;;105.83;23.77;;;;;1.30;99602.00;;;;10092184;29;20255;-85
2023/11/30 15:42:29;;;;;;;101.43;27.27;;;;;1.30;99598.00;;;;10128772;29;20585;-85
2023/11/30 15:47:30;;;;;;;99.20;26.50;;;;;1.40;99605.00;;;;10092751;29;21206;-87
2023/11/30 15:52:32;;;;;;;94.93;27.00;;;;;1.40;99607.00;;;;10111759;29;20326;-84
2023/11/30 15:57:33;;;;;;;67.37;23.83;;;;;1.50;99611.00;;;;10123462;29;20230;-84
2023/11/30 16:02:35;;;;;;;103.37;26.13;;;;;1.50;99630.00;;;;10092684;29;20275;-84
2023/11/30 16:07:36;;;;;;;83.83;22.77;;;;;1.40;99635.00;;;;10104564;29;20231;-86
2023/11/30 16:12:37;;;;;;;70.70;24.20;;;;;1.20;99641.00;;;;10114840;29;20231;-87
2023/11/30 16:17:39;;;;;;;87.70;23.93;;;;;1.20;99642.00;;;;10141428;28;20241;-86
2023/11/30 16:22:40;;;;;;;92.07;25.03;;;;;1.20;99648.00;;;;10136273;29;20235;-87
2023/11/30 16:27:42;;;;;;;73.70;25.37;;;;;1.20;99650.00;;;;10116997;28;20295;-85
2023/11/30 16:32:46;;;;;;;76.27;24.10;;;;;1.20;99651.00;;;;10110357;29;20229;-85
2023/11/30 16:37:47;;;;;;;65.10;22.50;;;;;1.20;99642.00;;;;10123541;29;20230;-86
2023/11/30 16:42:48;;;;;;;73.87;25.37;;;;;1.20;99641.00;;;;10121650;29;20239;-85
2023/11/30 16:47:50;;;;;;;69.40;25.80;;;;;1.20;99640.00;;;;10115648;29;20231;-85
2023/11/30 16:52:51;;;;;;;72.07;24.80;;;;;1.20;99646.00;;;;10104988;29;20234;-84
2023/11/30 16:57:52;;;;;;;78.33;25.37;;;;;1.10;99644.00;;;;10131950;29;20243;-86
2023/11/30 17:02:55;;;;;;;82.47;28.00;;;;;1.10;99646.00;;;;10103736;29;20593;-85
2023/11/30 17:07:57;;;;;;;98.90;27.27;;;;;1.10;99642.00;;;;10118396;29;20279;-84
2023/11/30 17:12:58;;;;;;;101.17;30.03;;;;;1.10;99644.00;;;;10105830;29;20728;-83
2023/11/30 17:17:59;;;;;;;89.53;29.40;;;;;1.10;99647.00;;;;10106644;29;20593;-89
2023/11/30 17:23:02;;;;;;;71.97;28.20;;;;;1.10;99639.00;;;;10134281;29;20283;-84
2023/11/30 17:28:04;;;;;;;88.83;30.07;;;;;1.10;99639.00;;;;10124111;29;21069;-84
2023/11/30 17:33:05;;;;;;;75.97;29.63;;;;;1.10;99630.00;;;;10114218;29;20228;-84
2023/11/30 17:38:09;;;;;;;92.80;32.20;;;;;1.10;99638.00;;;;10107661;29;20251;-84
2023/11/30 17:43:10;;;;;;;107.77;32.03;;;;;1.10;99636.00;;;;10133161;29;20234;-85
2023/11/30 17:48:11;;;;;;;133.30;35.60;;;;;1.10;99640.00;;;;10086593;29;20306;-77
2023/11/30 17:53:12;;;;;;;75.13;29.70;;;;;1.10;99638.00;;;;10110145;29;20235;-78
2023/11/30 17:58:13;;;;;;;76.77;29.40;;;;;1.20;99656.00;;;;10105672;29;20286;-77
2023/11/30 18:03:14;;;;;;;80.23;30.37;;;;;1.20;99658.00;;;;10145742;29;20763;-78
2023/11/30 18:08:16;;;;;;;90.10;33.20;;;;;1.20;99656.00;;;;10134212;29;20238;-79
2023/11/30 18:13:17;;;;;;;76.40;30.93;;;;;1.20;99660.00;;;;10103644;29;20238;-79
2023/11/30 18:18:19;;;;;;;79.73;30.57;;;;;1.20;99665.00;;;;10105918;29;20269;-77
2023/11/30 18:23:20;;;;;;;78.10;30.97;;;;;1.20;99675.00;;;;10111798;29;20336;-80
2023/11/30 18:28:21;;;;;;;81.13;31.23;;;;;1.20;99678.00;;;;10135575;29;20222;-78
2023/11/30 18:33:25;;;;;;;77.07;30.20;;;;;1.20;99691.00;;;;10107840;29;20326;-79
2023/11/30 18:38:27;;;;;;;84.00;32.40;;;;;1.10;99687.00;;;;10126182;29;20226;-80
2023/11/30 18:43:41;;;;;;;112.03;33.63;;;;;1.10;99685.00;;;;10097336;29;20231;-77
2023/11/30 18:48:42;;;;;;;90.33;32.90;;;;;1.10;99693.00;;;;10122421;29;20249;-78
2023/11/30 18:53:43;;;;;;;106.23;35.73;;;;;1.10;99698.00;;;;10126595;29;20241;-77
2023/11/30 18:58:45;;;;;;;115.23;35.33;;;;;1.10;99704.00;;;;10129162;29;20222;-78
2023/11/30 19:03:46;;;;;;;92.70;33.53;;;;;1.00;99709.00;;;;10105059;29;20287;-78
2023/11/30 19:08:48;;;;;;;102.23;33.23;;;;;1.00;99712.00;;;;10114859;29;20241;-79
2023/11/30 19:13:50;;;;;;;100.73;31.97;;;;;1.00;99717.00;;;;10115033;29;20235;-80
2023/11/30 19:18:51;;;;;;;85.30;29.87;;;;;1.00;99723.00;;;;10128943;29;20227;-78
2023/11/30 19:23:54;;;;;;;90.57;29.23;;;;;1.00;99720.00;;;;10102764;29;20243;-80
2023/11/30 19:28:55;;;;;;;92.40;31.03;;;;;1.00;99710.00;;;;10096880;28;20234;-78
2023/11/30 19:33:57;;;;;;;88.37;31.77;;;;;1.00;99716.00;;;;10118456;29;20286;-78
2023/11/30 19:38:58;;;;;;;93.73;30.57;;;;;1.10;99710.00;;;;10117677;29;20234;-79
2023/11/30 19:43:59;;;;;;;91.37;31.53;;;;;1.10;99708.00;;;;10119877;29;20233;-77
2023/11/30 19:49:01;;;;;;;79.33;28.53;;;;;1.20;99701.00;;;;10128345;29;20455;-78
2023/11/30 19:54:02;;;;;;;68.53;27.70;;;;;1.10;99705.00;;;;10140135;29;20231;-77
2023/11/30 19:59:04;;;;;;;91.20;30.53;;;;;1.10;99704.00;;;;10116417;29;20231;-77
2023/11/30 20:04:05;;;;;;;79.47;27.03;;;;;1.20;99700.00;;;;10119917;29;20234;-78
2023/11/30 20:09:07;;;;;;;80.00;28.07;;;;;1.20;99699.00;;;;10136808;29;20226;-78
2023/11/30 20:14:08;;;;;;;106.17;31.07;;;;;1.20;99696.00;;;;10110269;29;20597;-78
2023/11/30 20:19:09;;;;;;;90.33;29.57;;;;;1.20;99703.00;;;;10133935;29;20233;-77
2023/11/30 20:24:11;;;;;;;105.13;30.87;;;;;1.20;99699.00;;;;10150663;29;20846;-78
2023/11/30 20:29:12;;;;;;;95.60;32.77;;;;;1.10;99700.00;;;;10113500;29;20222;-79
2023/11/30 20:34:13;;;;;;;102.30;33.33;;;;;1.10;99702.00;;;;10102306;29;20760;-79
2023/11/30 20:39:14;;;;;;;100.47;32.53;;;;;1.20;99706.00;;;;10130414;29;20266;-79
2023/11/30 20:44:15;;;;;;;99.83;33.27;;;;;1.10;99695.00;;;;10091272;29;21037;-79
2023/11/30 20:49:17;;;;;;;96.83;30.33;;;;;1.10;99699.00;;;;10098084;29;20291;-78
2023/11/30 20:54:18;;;;;;;100.00;32.23;;;;;1.00;99691.00;;;;10095700;29;20231;-78
2023/11/30 20:59:19;;;;;;;112.13;32.60;;;;;1.00;99693.00;;;;10130569;29;20239;-78
2023/11/30 21:04:20;;;;;;;112.80;33.17;;;;;1.00;99694.00;;;;10118515;29;20239;-79
2023/11/30 21:09:22;;;;;;;107.70;34.67;;;;;1.00;99693.00;;;;10142052;29;20250;-80
2023/11/30 21:14:23;;;;;;;106.90;33.77;;;;;1.00;99694.00;;;;10144627;29;20234;-80
2023/11/30 21:19:25;;;;;;;101.60;32.23;;;;;1.00;99705.00;;;;10124286;29;20238;-83
2023/11/30 21:24:27;;;;;;;113.10;34.03;;;;;1.00;99701.00;;;;10120146;29;20792;-84
2023/11/30 21:29:28;;;;;;;107.27;33.03;;;;;1.00;99697.00;;;;10101563;29;20939;-82
2023/11/30 21:34:30;;;;;;;109.30;35.73;;;;;1.00;99697.00;;;;10111373;29;20245;-83
2023/11/30 21:39:33;;;;;;;112.33;33.73;;;;;1.00;99696.00;;;;10117549;29;20314;-83
2023/11/30 21:44:36;;;;;;;108.20;33.33;;;;;1.00;99698.00;;;;10114682;29;20227;-83
2023/11/30 21:49:46;;;;;;;96.60;32.67;;;;;1.10;99711.00;;;;10127736;29;20320;-83
2023/11/30 21:54:47;;;;;;;92.37;32.47;;;;;1.10;99709.00;;;;10101603;29;20246;-83
2023/11/30 21:59:48;;;;;;;129.73;34.93;;;;;1.00;99718.00;;;;10110378;29;20222;-83
2023/11/30 22:04:49;;;;;;;108.43;32.17;;;;;1.00;99729.00;;;;10122743;29;20226;-83
2023/11/30 22:09:51;;;;;;;118.00;35.47;;;;;1.00;99728.00;;;;10134851;29;20222;-83
2023/11/30 22:14:52;;;;;;;103.33;33.50;;;;;1.00;99727.00;;;;10124921;29;20223;-83
2023/11/30 22:19:53;;;;;;;107.30;34.13;;;;;1.00;99730.00;;;;10130179;29;20282;-84
2023/11/30 22:24:54;;;;;;;117.97;37.63;;;;;1.00;99732.00;;;;10103384;29;20222;-84
2023/11/30 22:29:55;;;;;;;122.17;37.03;;;;;1.00;99722.00;;;;10098286;29;20256;-78
2023/11/30 22:34:57;;;;;;;106.47;35.10;;;;;1.00;99729.00;;;;10105405;29;20254;-77
2023/11/30 22:39:58;;;;;;;109.10;33.03;;;;;1.00;99719.00;;;;10128253;29;20231;-79
2023/11/30 22:45:00;;;;;;;115.40;35.13;;;;;1.00;99736.00;;;;10145463;29;20234;-78
2023/11/30 22:50:05;;;;;;;110.40;34.80;;;;;1.00;99735.00;;;;10157646;29;20710;-78
2023/11/30 22:55:07;;;;;;;99.30;35.53;;;;;0.90;99745.00;;;;10128643;29;20317;-78
2023/11/30 23:00:19;;;;;;;103.27;32.00;;;;;0.80;99730.00;;;;10128653;29;20636;-77
2023/11/30 23:05:20;;;;;;;97.30;32.30;;;;;0.80;99734.00;;;;10133623;29;20223;-77
2023/11/30 23:10:23;;;;;;;94.70;33.13;;;;;0.80;99736.00;;;;10098012;29;20322;-77
2023/11/30 23:15:24;;;;;;;105.17;30.73;;;;;0.80;99744.00;;;;10132905;29;20834;-78
2023/11/30 23:20:25;;;;;;;113.57;34.17;;;;;0.80;99740.00;;;;10107776;29;20258;-77
2023/11/30 23:25:26;;;;;;;116.00;36.03;;;;;0.80;99756.00;;;;10141061;29;20238;-78
2023/11/30 23:30:28;;;;;;;99.33;33.90;;;;;0.80;99750.00;;;;10126908;29;20230;-79
2023/11/30 23:35:29;;;;;;;96.73;32.60;;;;;0.80;99763.00;;;;10098105;29;20246;-78
2023/11/30 23:40:30;;;;;;;112.63;34.13;;;;;0.90;99758.00;;;;10108826;29;20323;-78
2023/11/30 23:45:31;;;;;;;104.63;31.63;;;;;0.90;99778.00;;;;10101285;29;20250;-78
2023/11/30 23:50:32;;;;;;;111.50;33.70;;;;;0.90;99790.00;;;;10143850;29;20285;-79
2023/11/30 23:55:34;;;;;;;107.07;32.93;;;;;0.90;99781.00;;;;10105963;29;20246;-79
